sensor_id;sensor_type;location;lat;lon;timestamp;temperature;humidity
33645;DHT22;19986;48.190;16.366;2023-08-08T00:01:34;17.20;99.90
33645;DHT22;19986;48.190;16.366;2023-08-08T00:04:01;17.20;99.90
33645;DHT22;19986;48.190;16.366;2023-08-08T00:06:26;17.20;99.90
33645;DHT22;19986;48.190;16.366;2023-08-08T00:08:52;17.30;99.90
33645;DHT22;19986;48.190;16.366;2023-08-08T00:11:18;17.20;99.90
33645;DHT22;19986;48.190;16.366;2023-08-08T00:13:44;17.30;99.90
33645;DHT22;19986;48.190;16.366;2023-08-08T00:16:10;17.20;99.90
33645;DHT22;19986;48.190;16.366;2023-08-08T00:18:36;17.20;99.90
33645;DHT22;19986;48.190;16.366;2023-08-08T00:21:02;17.20;99.90
33645;DHT22;19986;48.190;16.366;2023-08-08T00:23:27;17.20;99.90
33645;DHT22;19986;48.190;16.366;2023-08-08T00:25:53;17.20;99.90
33645;DHT22;19986;48.190;16.366;2023-08-08T00:28:19;17.20;99.90
33645;DHT22;19986;48.190;16.366;2023-08-08T00:30:45;17.20;99.90
33645;DHT22;19986;48.190;16.366;2023-08-08T00:33:11;17.20;99.90
33645;DHT22;19986;48.190;16.366;2023-08-08T00:35:37;17.20;99.90
33645;DHT22;19986;48.190;16.366;2023-08-08T00:38:03;17.20;99.90
33645;DHT22;19986;48.190;16.366;2023-08-08T00:40:28;17.20;99.90
33645;DHT22;19986;48.190;16.366;2023-08-08T00:42:54;17.20;99.90
33645;DHT22;19986;48.190;16.366;2023-08-08T00:45:20;17.20;99.90
33645;DHT22;19986;48.190;16.366;2023-08-08T00:47:46;17.20;99.90
33645;DHT22;19986;48.190;16.366;2023-08-08T00:50:12;17.20;99.90
33645;DHT22;19986;48.190;16.366;2023-08-08T00:52:40;17.20;99.90
33645;DHT22;19986;48.190;16.366;2023-08-08T00:55:07;17.20;99.90
33645;DHT22;19986;48.190;16.366;2023-08-08T00:57:34;17.20;99.90
33645;DHT22;19986;48.190;16.366;2023-08-08T01:00:01;17.10;99.90
33645;DHT22;19986;48.190;16.366;2023-08-08T01:02:26;17.10;99.90
33645;DHT22;19986;48.190;16.366;2023-08-08T01:04:52;17.10;99.90
33645;DHT22;19986;48.190;16.366;2023-08-08T01:10:00;17.10;99.90
33645;DHT22;19986;48.190;16.366;2023-08-08T01:12:38;17.10;99.90
33645;DHT22;19986;48.190;16.366;2023-08-08T01:15:06;17.10;99.90
33645;DHT22;19986;48.190;16.366;2023-08-08T01:17:35;17.00;99.90
33645;DHT22;19986;48.190;16.366;2023-08-08T01:20:03;17.00;99.90
33645;DHT22;19986;48.190;16.366;2023-08-08T01:22:36;17.10;99.90
33645;DHT22;19986;48.190;16.366;2023-08-08T01:25:04;17.10;99.90
33645;DHT22;19986;48.190;16.366;2023-08-08T01:27:30;17.10;99.90
33645;DHT22;19986;48.190;16.366;2023-08-08T01:29:56;17.10;99.90
33645;DHT22;19986;48.190;16.366;2023-08-08T01:32:22;17.10;99.90
33645;DHT22;19986;48.190;16.366;2023-08-08T01:34:48;17.10;99.90
33645;DHT22;19986;48.190;16.366;2023-08-08T01:37:30;17.10;99.90
33645;DHT22;19986;48.190;16.366;2023-08-08T01:39:59;17.10;99.90
33645;DHT22;19986;48.190;16.366;2023-08-08T01:42:27;17.10;99.90
33645;DHT22;19986;48.190;16.366;2023-08-08T01:44:54;17.10;99.90
33645;DHT22;19986;48.190;16.366;2023-08-08T01:47:21;17.00;99.90
33645;DHT22;19986;48.190;16.366;2023-08-08T01:49:47;17.10;99.90
33645;DHT22;19986;48.190;16.366;2023-08-08T01:52:13;17.10;99.90
33645;DHT22;19986;48.190;16.366;2023-08-08T01:54:39;17.00;99.90
33645;DHT22;19986;48.190;16.366;2023-08-08T01:57:08;17.10;99.90
33645;DHT22;19986;48.190;16.366;2023-08-08T01:59:33;17.10;99.90
33645;DHT22;19986;48.190;16.366;2023-08-08T02:02:00;17.10;99.90
33645;DHT22;19986;48.190;16.366;2023-08-08T02:04:26;17.10;99.90
33645;DHT22;19986;48.190;16.366;2023-08-08T02:06:57;17.10;99.90
33645;DHT22;19986;48.190;16.366;2023-08-08T02:09:23;17.10;99.90
33645;DHT22;19986;48.190;16.366;2023-08-08T02:11:50;17.10;99.90
33645;DHT22;19986;48.190;16.366;2023-08-08T02:14:15;17.10;99.90
33645;DHT22;19986;48.190;16.366;2023-08-08T02:16:41;17.10;99.90
33645;DHT22;19986;48.190;16.366;2023-08-08T02:19:07;17.10;99.90
33645;DHT22;19986;48.190;16.366;2023-08-08T02:21:33;17.10;99.90
33645;DHT22;19986;48.190;16.366;2023-08-08T02:23:59;17.10;99.90
33645;DHT22;19986;48.190;16.366;2023-08-08T02:26:25;17.10;99.90
33645;DHT22;19986;48.190;16.366;2023-08-08T02:28:51;17.10;99.90
33645;DHT22;19986;48.190;16.366;2023-08-08T02:31:17;17.10;99.90
33645;DHT22;19986;48.190;16.366;2023-08-08T02:33:50;17.10;99.90
33645;DHT22;19986;48.190;16.366;2023-08-08T02:36:17;17.10;99.90
33645;DHT22;19986;48.190;16.366;2023-08-08T02:38:43;17.10;99.90
33645;DHT22;19986;48.190;16.366;2023-08-08T02:41:09;17.00;99.90
33645;DHT22;19986;48.190;16.366;2023-08-08T02:43:35;17.00;99.90
33645;DHT22;19986;48.190;16.366;2023-08-08T02:46:01;17.00;99.90
33645;DHT22;19986;48.190;16.366;2023-08-08T02:48:28;17.00;99.90
33645;DHT22;19986;48.190;16.366;2023-08-08T02:50:54;17.00;99.90
33645;DHT22;19986;48.190;16.366;2023-08-08T02:53:20;17.00;99.90
33645;DHT22;19986;48.190;16.366;2023-08-08T02:55:46;17.00;99.90
33645;DHT22;19986;48.190;16.366;2023-08-08T02:58:12;17.00;99.90
33645;DHT22;19986;48.190;16.366;2023-08-08T03:00:38;17.00;99.90
33645;DHT22;19986;48.190;16.366;2023-08-08T03:03:04;17.00;99.90
33645;DHT22;19986;48.190;16.366;2023-08-08T03:05:30;17.00;99.90
33645;DHT22;19986;48.190;16.366;2023-08-08T03:07:56;17.00;99.90
33645;DHT22;19986;48.190;16.366;2023-08-08T03:10:22;16.90;99.90
33645;DHT22;19986;48.190;16.366;2023-08-08T03:12:47;17.00;99.90
33645;DHT22;19986;48.190;16.366;2023-08-08T03:15:13;17.00;99.90
33645;DHT22;19986;48.190;16.366;2023-08-08T03:17:39;17.00;99.90
33645;DHT22;19986;48.190;16.366;2023-08-08T03:20:06;17.00;99.90
33645;DHT22;19986;48.190;16.366;2023-08-08T03:22:32;17.00;99.90
33645;DHT22;19986;48.190;16.366;2023-08-08T03:24:58;17.00;99.90
33645;DHT22;19986;48.190;16.366;2023-08-08T03:27:24;16.90;99.90
33645;DHT22;19986;48.190;16.366;2023-08-08T03:29:51;16.90;99.90
33645;DHT22;19986;48.190;16.366;2023-08-08T03:32:17;17.00;99.90
33645;DHT22;19986;48.190;16.366;2023-08-08T03:34:42;17.00;99.90
33645;DHT22;19986;48.190;16.366;2023-08-08T03:37:08;16.90;99.90
33645;DHT22;19986;48.190;16.366;2023-08-08T03:39:34;17.00;99.90
33645;DHT22;19986;48.190;16.366;2023-08-08T03:42:00;17.00;99.90
33645;DHT22;19986;48.190;16.366;2023-08-08T03:44:25;17.00;99.90
33645;DHT22;19986;48.190;16.366;2023-08-08T03:46:51;17.00;99.90
33645;DHT22;19986;48.190;16.366;2023-08-08T03:49:17;17.00;99.90
33645;DHT22;19986;48.190;16.366;2023-08-08T03:51:43;17.00;99.90
33645;DHT22;19986;48.190;16.366;2023-08-08T03:54:09;17.00;99.90
33645;DHT22;19986;48.190;16.366;2023-08-08T03:56:35;17.10;99.90
33645;DHT22;19986;48.190;16.366;2023-08-08T03:59:00;17.10;99.90
33645;DHT22;19986;48.190;16.366;2023-08-08T04:01:26;17.10;99.90
33645;DHT22;19986;48.190;16.366;2023-08-08T04:03:52;17.20;99.90
33645;DHT22;19986;48.190;16.366;2023-08-08T04:06:18;17.20;99.90
33645;DHT22;19986;48.190;16.366;2023-08-08T04:08:44;17.20;99.90
33645;DHT22;19986;48.190;16.366;2023-08-08T04:11:10;17.20;99.90
33645;DHT22;19986;48.190;16.366;2023-08-08T04:13:36;17.30;99.90
33645;DHT22;19986;48.190;16.366;2023-08-08T04:16:02;17.30;99.90
33645;DHT22;19986;48.190;16.366;2023-08-08T04:18:28;17.40;99.90
33645;DHT22;19986;48.190;16.366;2023-08-08T04:20:54;17.40;99.90
33645;DHT22;19986;48.190;16.366;2023-08-08T04:23:20;17.40;99.90
33645;DHT22;19986;48.190;16.366;2023-08-08T04:25:45;17.50;99.90
33645;DHT22;19986;48.190;16.366;2023-08-08T04:28:11;17.50;99.90
33645;DHT22;19986;48.190;16.366;2023-08-08T04:30:37;17.60;99.90
33645;DHT22;19986;48.190;16.366;2023-08-08T04:33:03;17.60;99.90
33645;DHT22;19986;48.190;16.366;2023-08-08T04:35:29;17.60;99.90
33645;DHT22;19986;48.190;16.366;2023-08-08T04:37:55;17.70;99.90
33645;DHT22;19986;48.190;16.366;2023-08-08T04:40:21;17.80;99.90
33645;DHT22;19986;48.190;16.366;2023-08-08T04:42:47;17.80;99.90
33645;DHT22;19986;48.190;16.366;2023-08-08T04:45:12;17.90;99.90
33645;DHT22;19986;48.190;16.366;2023-08-08T04:47:39;17.90;99.90
33645;DHT22;19986;48.190;16.366;2023-08-08T04:50:05;17.90;99.90
33645;DHT22;19986;48.190;16.366;2023-08-08T04:52:34;17.90;99.90
33645;DHT22;19986;48.190;16.366;2023-08-08T04:55:00;18.00;99.90
33645;DHT22;19986;48.190;16.366;2023-08-08T04:57:25;18.00;99.90
33645;DHT22;19986;48.190;16.366;2023-08-08T04:59:52;18.10;99.90
33645;DHT22;19986;48.190;16.366;2023-08-08T05:02:18;18.10;99.90
33645;DHT22;19986;48.190;16.366;2023-08-08T05:04:44;18.20;99.90
33645;DHT22;19986;48.190;16.366;2023-08-08T05:07:10;18.20;99.90
33645;DHT22;19986;48.190;16.366;2023-08-08T05:09:36;18.40;99.90
33645;DHT22;19986;48.190;16.366;2023-08-08T05:12:01;18.50;99.90
33645;DHT22;19986;48.190;16.366;2023-08-08T05:14:27;18.60;99.90
33645;DHT22;19986;48.190;16.366;2023-08-08T05:16:53;18.70;99.90
33645;DHT22;19986;48.190;16.366;2023-08-08T05:19:19;18.70;99.90
33645;DHT22;19986;48.190;16.366;2023-08-08T05:21:46;18.80;99.90
33645;DHT22;19986;48.190;16.366;2023-08-08T05:24:12;19.00;99.90
33645;DHT22;19986;48.190;16.366;2023-08-08T05:26:38;19.10;99.90
33645;DHT22;19986;48.190;16.366;2023-08-08T05:29:03;19.30;99.90
33645;DHT22;19986;48.190;16.366;2023-08-08T05:31:29;19.40;99.90
33645;DHT22;19986;48.190;16.366;2023-08-08T05:33:55;19.50;99.90
33645;DHT22;19986;48.190;16.366;2023-08-08T05:36:21;19.70;99.90
33645;DHT22;19986;48.190;16.366;2023-08-08T05:38:47;19.70;99.90
33645;DHT22;19986;48.190;16.366;2023-08-08T05:41:12;19.80;99.90
33645;DHT22;19986;48.190;16.366;2023-08-08T05:43:38;20.00;99.90
33645;DHT22;19986;48.190;16.366;2023-08-08T05:46:04;20.10;99.90
33645;DHT22;19986;48.190;16.366;2023-08-08T05:48:30;20.10;99.90
33645;DHT22;19986;48.190;16.366;2023-08-08T05:50:56;20.10;99.90
33645;DHT22;19986;48.190;16.366;2023-08-08T05:53:24;20.30;99.90
33645;DHT22;19986;48.190;16.366;2023-08-08T05:55:50;20.30;99.90
33645;DHT22;19986;48.190;16.366;2023-08-08T05:58:16;20.30;99.90
33645;DHT22;19986;48.190;16.366;2023-08-08T06:00:42;20.40;99.90
33645;DHT22;19986;48.190;16.366;2023-08-08T06:03:08;20.40;99.90
33645;DHT22;19986;48.190;16.366;2023-08-08T06:05:34;20.40;99.90
33645;DHT22;19986;48.190;16.366;2023-08-08T06:08:00;20.50;99.90
33645;DHT22;19986;48.190;16.366;2023-08-08T06:10:26;20.50;99.90
33645;DHT22;19986;48.190;16.366;2023-08-08T06:12:52;20.50;99.90
33645;DHT22;19986;48.190;16.366;2023-08-08T06:15:18;20.50;99.90
33645;DHT22;19986;48.190;16.366;2023-08-08T06:17:44;20.60;99.90
33645;DHT22;19986;48.190;16.366;2023-08-08T06:20:10;20.70;99.90
33645;DHT22;19986;48.190;16.366;2023-08-08T06:22:36;20.70;99.90
33645;DHT22;19986;48.190;16.366;2023-08-08T06:25:02;20.70;99.90
33645;DHT22;19986;48.190;16.366;2023-08-08T06:27:29;20.70;99.90
33645;DHT22;19986;48.190;16.366;2023-08-08T06:29:55;20.80;99.90
33645;DHT22;19986;48.190;16.366;2023-08-08T06:32:21;20.90;99.90
33645;DHT22;19986;48.190;16.366;2023-08-08T06:34:47;20.90;99.90
33645;DHT22;19986;48.190;16.366;2023-08-08T06:37:13;20.90;99.90
33645;DHT22;19986;48.190;16.366;2023-08-08T06:39:39;21.00;99.90
33645;DHT22;19986;48.190;16.366;2023-08-08T06:42:05;21.30;99.90
33645;DHT22;19986;48.190;16.366;2023-08-08T06:44:44;21.40;99.90
33645;DHT22;19986;48.190;16.366;2023-08-08T06:47:10;21.60;99.90
33645;DHT22;19986;48.190;16.366;2023-08-08T06:49:37;21.60;99.90
33645;DHT22;19986;48.190;16.366;2023-08-08T06:52:07;21.60;99.90
33645;DHT22;19986;48.190;16.366;2023-08-08T06:54:33;21.60;99.90
33645;DHT22;19986;48.190;16.366;2023-08-08T06:57:00;21.70;99.90
33645;DHT22;19986;48.190;16.366;2023-08-08T06:59:27;21.80;99.90
33645;DHT22;19986;48.190;16.366;2023-08-08T07:01:53;22.00;99.90
33645;DHT22;19986;48.190;16.366;2023-08-08T07:04:19;22.20;99.90
33645;DHT22;19986;48.190;16.366;2023-08-08T07:06:46;22.30;99.90
33645;DHT22;19986;48.190;16.366;2023-08-08T07:09:11;22.30;99.90
33645;DHT22;19986;48.190;16.366;2023-08-08T07:11:38;22.30;99.90
33645;DHT22;19986;48.190;16.366;2023-08-08T07:14:04;22.10;99.90
33645;DHT22;19986;48.190;16.366;2023-08-08T07:16:30;22.10;99.90
33645;DHT22;19986;48.190;16.366;2023-08-08T07:18:55;22.10;99.90
33645;DHT22;19986;48.190;16.366;2023-08-08T07:21:21;22.30;99.90
33645;DHT22;19986;48.190;16.366;2023-08-08T07:23:51;22.50;99.90
33645;DHT22;19986;48.190;16.366;2023-08-08T07:26:17;22.60;99.90
33645;DHT22;19986;48.190;16.366;2023-08-08T07:28:44;22.80;99.90
33645;DHT22;19986;48.190;16.366;2023-08-08T07:31:10;22.90;99.90
33645;DHT22;19986;48.190;16.366;2023-08-08T07:33:36;23.10;99.90
33645;DHT22;19986;48.190;16.366;2023-08-08T07:36:02;23.20;99.90
33645;DHT22;19986;48.190;16.366;2023-08-08T07:38:28;23.20;99.90
33645;DHT22;19986;48.190;16.366;2023-08-08T07:40:54;23.20;99.90
33645;DHT22;19986;48.190;16.366;2023-08-08T07:43:19;23.20;99.90
33645;DHT22;19986;48.190;16.366;2023-08-08T07:45:46;23.30;99.90
33645;DHT22;19986;48.190;16.366;2023-08-08T07:48:12;23.30;99.90
33645;DHT22;19986;48.190;16.366;2023-08-08T07:50:38;23.40;99.90
33645;DHT22;19986;48.190;16.366;2023-08-08T07:53:04;23.40;99.90
33645;DHT22;19986;48.190;16.366;2023-08-08T07:55:29;23.20;99.90
33645;DHT22;19986;48.190;16.366;2023-08-08T07:57:55;23.00;99.90
33645;DHT22;19986;48.190;16.366;2023-08-08T08:00:21;22.90;99.90
33645;DHT22;19986;48.190;16.366;2023-08-08T08:02:47;23.10;99.90
33645;DHT22;19986;48.190;16.366;2023-08-08T08:05:13;23.50;99.90
33645;DHT22;19986;48.190;16.366;2023-08-08T08:07:39;23.70;99.90
33645;DHT22;19986;48.190;16.366;2023-08-08T08:10:08;23.80;99.90
33645;DHT22;19986;48.190;16.366;2023-08-08T08:12:35;23.80;99.90
33645;DHT22;19986;48.190;16.366;2023-08-08T08:15:01;23.80;99.90
33645;DHT22;19986;48.190;16.366;2023-08-08T08:17:27;23.80;99.90
33645;DHT22;19986;48.190;16.366;2023-08-08T08:19:55;23.90;99.90
33645;DHT22;19986;48.190;16.366;2023-08-08T08:22:21;23.90;99.90
33645;DHT22;19986;48.190;16.366;2023-08-08T08:24:47;23.70;99.90
33645;DHT22;19986;48.190;16.366;2023-08-08T08:27:13;23.40;99.90
33645;DHT22;19986;48.190;16.366;2023-08-08T08:29:39;23.20;99.90
33645;DHT22;19986;48.190;16.366;2023-08-08T08:32:05;23.10;99.90
33645;DHT22;19986;48.190;16.366;2023-08-08T08:34:31;23.10;99.90
33645;DHT22;19986;48.190;16.366;2023-08-08T08:36:57;22.90;99.90
33645;DHT22;19986;48.190;16.366;2023-08-08T08:39:23;22.80;99.90
33645;DHT22;19986;48.190;16.366;2023-08-08T08:41:52;22.80;99.90
33645;DHT22;19986;48.190;16.366;2023-08-08T08:44:21;22.80;99.90
33645;DHT22;19986;48.190;16.366;2023-08-08T08:46:48;22.80;99.90
33645;DHT22;19986;48.190;16.366;2023-08-08T08:49:17;22.80;99.90
33645;DHT22;19986;48.190;16.366;2023-08-08T08:51:59;22.80;99.90
33645;DHT22;19986;48.190;16.366;2023-08-08T08:54:27;22.90;99.90
33645;DHT22;19986;48.190;16.366;2023-08-08T08:56:56;22.90;99.90
33645;DHT22;19986;48.190;16.366;2023-08-08T08:59:22;22.80;99.90
33645;DHT22;19986;48.190;16.366;2023-08-08T09:01:48;22.90;99.90
33645;DHT22;19986;48.190;16.366;2023-08-08T09:04:15;22.90;99.90
33645;DHT22;19986;48.190;16.366;2023-08-08T09:06:44;23.00;99.90
33645;DHT22;19986;48.190;16.366;2023-08-08T09:09:11;23.10;99.90
33645;DHT22;19986;48.190;16.366;2023-08-08T09:11:39;23.40;99.90
33645;DHT22;19986;48.190;16.366;2023-08-08T09:14:18;23.60;99.90
33645;DHT22;19986;48.190;16.366;2023-08-08T09:16:46;23.90;99.90
33645;DHT22;19986;48.190;16.366;2023-08-08T09:19:14;24.10;99.90
33645;DHT22;19986;48.190;16.366;2023-08-08T09:21:40;24.20;99.90
33645;DHT22;19986;48.190;16.366;2023-08-08T09:24:06;24.30;99.90
33645;DHT22;19986;48.190;16.366;2023-08-08T09:26:33;24.20;99.90
33645;DHT22;19986;48.190;16.366;2023-08-08T09:29:01;24.00;99.90
33645;DHT22;19986;48.190;16.366;2023-08-08T09:31:28;23.80;99.90
33645;DHT22;19986;48.190;16.366;2023-08-08T09:33:58;23.70;99.90
33645;DHT22;19986;48.190;16.366;2023-08-08T09:36:24;23.60;99.90
33645;DHT22;19986;48.190;16.366;2023-08-08T09:38:54;23.70;99.90
33645;DHT22;19986;48.190;16.366;2023-08-08T09:41:24;24.00;99.90
33645;DHT22;19986;48.190;16.366;2023-08-08T09:43:52;24.20;99.90
33645;DHT22;19986;48.190;16.366;2023-08-08T09:46:21;24.80;99.90
33645;DHT22;19986;48.190;16.366;2023-08-08T09:48:48;25.60;99.10
33645;DHT22;19986;48.190;16.366;2023-08-08T09:51:15;27.10;98.00
33645;DHT22;19986;48.190;16.366;2023-08-08T09:53:41;29.00;95.40
33645;DHT22;19986;48.190;16.366;2023-08-08T09:56:07;30.20;94.40
33645;DHT22;19986;48.190;16.366;2023-08-08T09:58:33;31.60;92.20
33645;DHT22;19986;48.190;16.366;2023-08-08T10:00:59;32.30;88.50
33645;DHT22;19986;48.190;16.366;2023-08-08T10:03:25;32.60;85.10
33645;DHT22;19986;48.190;16.366;2023-08-08T10:05:55;32.70;85.80
33645;DHT22;19986;48.190;16.366;2023-08-08T10:08:21;33.40;82.00
33645;DHT22;19986;48.190;16.366;2023-08-08T10:10:48;33.50;80.90
33645;DHT22;19986;48.190;16.366;2023-08-08T10:13:23;34.00;81.20
33645;DHT22;19986;48.190;16.366;2023-08-08T10:15:50;34.80;79.60
33645;DHT22;19986;48.190;16.366;2023-08-08T10:18:17;35.70;77.90
33645;DHT22;19986;48.190;16.366;2023-08-08T10:20:47;36.10;76.50
33645;DHT22;19986;48.190;16.366;2023-08-08T10:23:20;36.20;72.50
33645;DHT22;19986;48.190;16.366;2023-08-08T10:25:51;35.80;72.90
33645;DHT22;19986;48.190;16.366;2023-08-08T10:28:21;36.10;72.10
33645;DHT22;19986;48.190;16.366;2023-08-08T10:31:01;35.60;71.50
33645;DHT22;19986;48.190;16.366;2023-08-08T10:33:42;35.70;71.10
33645;DHT22;19986;48.190;16.366;2023-08-08T10:36:11;35.70;70.70
33645;DHT22;19986;48.190;16.366;2023-08-08T10:38:49;35.80;70.20
33645;DHT22;19986;48.190;16.366;2023-08-08T10:41:20;36.00;69.90
33645;DHT22;19986;48.190;16.366;2023-08-08T10:43:49;36.10;69.20
33645;DHT22;19986;48.190;16.366;2023-08-08T10:46:29;35.80;68.80
33645;DHT22;19986;48.190;16.366;2023-08-08T10:48:59;36.20;68.10
33645;DHT22;19986;48.190;16.366;2023-08-08T10:51:39;36.40;66.90
33645;DHT22;19986;48.190;16.366;2023-08-08T10:54:23;36.20;66.10
33645;DHT22;19986;48.190;16.366;2023-08-08T10:56:56;36.20;65.60
33645;DHT22;19986;48.190;16.366;2023-08-08T10:59:25;36.10;66.40
33645;DHT22;19986;48.190;16.366;2023-08-08T11:01:52;35.90;65.40
33645;DHT22;19986;48.190;16.366;2023-08-08T11:04:20;35.50;66.20
33645;DHT22;19986;48.190;16.366;2023-08-08T11:06:46;35.50;66.00
33645;DHT22;19986;48.190;16.366;2023-08-08T11:09:16;35.50;64.20
33645;DHT22;19986;48.190;16.366;2023-08-08T11:11:46;35.20;65.70
33645;DHT22;19986;48.190;16.366;2023-08-08T11:14:16;35.70;65.00
33645;DHT22;19986;48.190;16.366;2023-08-08T11:16:44;35.50;64.40
33645;DHT22;19986;48.190;16.366;2023-08-08T11:19:11;35.50;64.80
33645;DHT22;19986;48.190;16.366;2023-08-08T11:21:41;35.20;64.60
33645;DHT22;19986;48.190;16.366;2023-08-08T11:24:08;35.00;65.50
33645;DHT22;19986;48.190;16.366;2023-08-08T11:26:35;35.30;65.70
33645;DHT22;19986;48.190;16.366;2023-08-08T11:29:02;35.70;64.80
33645;DHT22;19986;48.190;16.366;2023-08-08T11:31:29;35.70;65.00
33645;DHT22;19986;48.190;16.366;2023-08-08T11:33:57;35.70;64.50
33645;DHT22;19986;48.190;16.366;2023-08-08T11:36:23;34.70;63.30
33645;DHT22;19986;48.190;16.366;2023-08-08T11:38:50;34.10;65.50
33645;DHT22;19986;48.190;16.366;2023-08-08T11:41:20;34.30;66.40
33645;DHT22;19986;48.190;16.366;2023-08-08T11:43:47;34.50;65.70
33645;DHT22;19986;48.190;16.366;2023-08-08T11:46:13;34.10;64.60
33645;DHT22;19986;48.190;16.366;2023-08-08T11:48:39;34.00;65.60
33645;DHT22;19986;48.190;16.366;2023-08-08T11:51:06;34.20;65.20
33645;DHT22;19986;48.190;16.366;2023-08-08T11:53:33;34.30;65.20
33645;DHT22;19986;48.190;16.366;2023-08-08T11:56:00;34.60;64.00
33645;DHT22;19986;48.190;16.366;2023-08-08T11:58:26;34.40;65.20
33645;DHT22;19986;48.190;16.366;2023-08-08T12:00:52;34.20;63.80
33645;DHT22;19986;48.190;16.366;2023-08-08T12:03:20;34.10;65.60
33645;DHT22;19986;48.190;16.366;2023-08-08T12:05:47;34.10;63.70
33645;DHT22;19986;48.190;16.366;2023-08-08T12:08:20;34.00;64.00
33645;DHT22;19986;48.190;16.366;2023-08-08T12:10:52;33.90;63.30
33645;DHT22;19986;48.190;16.366;2023-08-08T12:13:23;33.50;64.50
33645;DHT22;19986;48.190;16.366;2023-08-08T12:15:52;33.10;63.80
33645;DHT22;19986;48.190;16.366;2023-08-08T12:18:19;32.50;64.00
33645;DHT22;19986;48.190;16.366;2023-08-08T12:20:45;32.20;64.80
33645;DHT22;19986;48.190;16.366;2023-08-08T12:23:12;32.10;65.70
33645;DHT22;19986;48.190;16.366;2023-08-08T12:25:38;32.10;66.20
33645;DHT22;19986;48.190;16.366;2023-08-08T12:28:04;32.20;65.90
33645;DHT22;19986;48.190;16.366;2023-08-08T12:30:31;32.10;64.90
33645;DHT22;19986;48.190;16.366;2023-08-08T12:32:57;31.70;64.60
33645;DHT22;19986;48.190;16.366;2023-08-08T12:35:23;31.60;65.10
33645;DHT22;19986;48.190;16.366;2023-08-08T12:37:52;31.30;66.20
33645;DHT22;19986;48.190;16.366;2023-08-08T12:40:18;31.10;67.70
33645;DHT22;19986;48.190;16.366;2023-08-08T12:42:44;31.20;67.60
33645;DHT22;19986;48.190;16.366;2023-08-08T12:45:12;30.80;67.50
33645;DHT22;19986;48.190;16.366;2023-08-08T12:47:38;30.40;67.70
33645;DHT22;19986;48.190;16.366;2023-08-08T12:50:05;30.40;68.60
33645;DHT22;19986;48.190;16.366;2023-08-08T12:52:31;30.50;68.20
33645;DHT22;19986;48.190;16.366;2023-08-08T12:54:57;30.00;68.40
33645;DHT22;19986;48.190;16.366;2023-08-08T12:57:23;29.70;68.60
33645;DHT22;19986;48.190;16.366;2023-08-08T12:59:50;29.50;69.50
33645;DHT22;19986;48.190;16.366;2023-08-08T13:02:16;29.30;69.30
33645;DHT22;19986;48.190;16.366;2023-08-08T13:04:42;29.10;70.20
33645;DHT22;19986;48.190;16.366;2023-08-08T13:07:08;29.00;70.60
33645;DHT22;19986;48.190;16.366;2023-08-08T13:09:34;28.80;71.20
33645;DHT22;19986;48.190;16.366;2023-08-08T13:12:00;28.70;71.40
33645;DHT22;19986;48.190;16.366;2023-08-08T13:14:26;28.60;72.80
33645;DHT22;19986;48.190;16.366;2023-08-08T13:16:52;28.50;72.80
33645;DHT22;19986;48.190;16.366;2023-08-08T13:19:19;28.40;72.30
33645;DHT22;19986;48.190;16.366;2023-08-08T13:21:47;28.30;73.60
33645;DHT22;19986;48.190;16.366;2023-08-08T13:24:13;28.20;72.40
33645;DHT22;19986;48.190;16.366;2023-08-08T13:26:40;28.10;72.30
33645;DHT22;19986;48.190;16.366;2023-08-08T13:29:07;28.10;72.90
33645;DHT22;19986;48.190;16.366;2023-08-08T13:31:34;28.00;72.50
33645;DHT22;19986;48.190;16.366;2023-08-08T13:33:59;27.90;72.00
33645;DHT22;19986;48.190;16.366;2023-08-08T13:36:25;27.80;72.00
33645;DHT22;19986;48.190;16.366;2023-08-08T13:38:51;27.80;72.50
33645;DHT22;19986;48.190;16.366;2023-08-08T13:41:17;27.70;73.00
33645;DHT22;19986;48.190;16.366;2023-08-08T13:43:43;27.70;72.80
33645;DHT22;19986;48.190;16.366;2023-08-08T13:46:09;27.70;71.90
33645;DHT22;19986;48.190;16.366;2023-08-08T13:48:36;27.80;72.30
33645;DHT22;19986;48.190;16.366;2023-08-08T13:51:02;27.90;72.60
33645;DHT22;19986;48.190;16.366;2023-08-08T13:53:28;28.00;72.30
33645;DHT22;19986;48.190;16.366;2023-08-08T13:55:55;28.10;71.90
33645;DHT22;19986;48.190;16.366;2023-08-08T13:58:21;28.10;71.40
33645;DHT22;19986;48.190;16.366;2023-08-08T14:00:48;28.10;71.60
33645;DHT22;19986;48.190;16.366;2023-08-08T14:03:15;28.10;71.90
33645;DHT22;19986;48.190;16.366;2023-08-08T14:05:41;28.00;70.40
33645;DHT22;19986;48.190;16.366;2023-08-08T14:08:07;28.00;71.40
33645;DHT22;19986;48.190;16.366;2023-08-08T14:10:33;27.90;72.20
33645;DHT22;19986;48.190;16.366;2023-08-08T14:12:59;28.10;71.40
33645;DHT22;19986;48.190;16.366;2023-08-08T14:15:25;28.00;71.00
33645;DHT22;19986;48.190;16.366;2023-08-08T14:17:50;27.90;71.10
33645;DHT22;19986;48.190;16.366;2023-08-08T14:20:16;28.00;73.50
33645;DHT22;19986;48.190;16.366;2023-08-08T14:22:45;28.00;70.80
33645;DHT22;19986;48.190;16.366;2023-08-08T14:25:12;28.00;71.30
33645;DHT22;19986;48.190;16.366;2023-08-08T14:27:38;28.10;72.20
33645;DHT22;19986;48.190;16.366;2023-08-08T14:30:05;28.00;72.20
33645;DHT22;19986;48.190;16.366;2023-08-08T14:32:32;28.00;73.20
33645;DHT22;19986;48.190;16.366;2023-08-08T14:34:58;28.00;72.50
33645;DHT22;19986;48.190;16.366;2023-08-08T14:37:23;28.00;71.70
33645;DHT22;19986;48.190;16.366;2023-08-08T14:39:52;28.10;71.60
33645;DHT22;19986;48.190;16.366;2023-08-08T14:42:18;28.10;72.50
33645;DHT22;19986;48.190;16.366;2023-08-08T14:44:45;28.30;70.60
33645;DHT22;19986;48.190;16.366;2023-08-08T14:47:11;28.40;69.90
33645;DHT22;19986;48.190;16.366;2023-08-08T14:49:37;28.40;68.90
33645;DHT22;19986;48.190;16.366;2023-08-08T14:52:03;28.40;68.50
33645;DHT22;19986;48.190;16.366;2023-08-08T14:54:29;28.40;69.10
33645;DHT22;19986;48.190;16.366;2023-08-08T14:56:55;28.20;69.40
33645;DHT22;19986;48.190;16.366;2023-08-08T14:59:22;28.30;70.00
33645;DHT22;19986;48.190;16.366;2023-08-08T15:01:49;28.40;70.00
33645;DHT22;19986;48.190;16.366;2023-08-08T15:04:15;28.50;70.10
33645;DHT22;19986;48.190;16.366;2023-08-08T15:06:41;28.70;69.90
33645;DHT22;19986;48.190;16.366;2023-08-08T15:09:07;28.70;69.70
33645;DHT22;19986;48.190;16.366;2023-08-08T15:11:33;28.80;69.90
33645;DHT22;19986;48.190;16.366;2023-08-08T15:13:58;28.80;69.70
33645;DHT22;19986;48.190;16.366;2023-08-08T15:16:24;28.60;69.70